sensor_id;sensor_type;location;lat;lon;timestamp;P1;durP1;ratioP1;P2;durP2;ratioP2
32812;SDS011;19162;48.254;11.454;2024-01-30T00:01:52;14.20;;;12.82;;
32812;SDS011;19162;48.254;11.454;2024-01-30T00:04:52;14.80;;;12.93;;
32812;SDS011;19162;48.254;11.454;2024-01-30T00:07:52;14.93;;;13.15;;
32812;SDS011;19162;48.254;11.454;2024-01-30T00:10:53;14.03;;;11.87;;
32812;SDS011;19162;48.254;11.454;2024-01-30T00:13:53;16.30;;;12.50;;
32812;SDS011;19162;48.254;11.454;2024-01-30T00:16:53;14.43;;;12.90;;
32812;SDS011;19162;48.254;11.454;2024-01-30T00:19:53;14.57;;;11.87;;
32812;SDS011;19162;48.254;11.454;2024-01-30T00:22:53;15.88;;;14.20;;
32812;SDS011;19162;48.254;11.454;2024-01-30T00:25:54;16.38;;;13.52;;
32812;SDS011;19162;48.254;11.454;2024-01-30T00:28:54;12.38;;;11.27;;
32812;SDS011;19162;48.254;11.454;2024-01-30T00:31:54;14.15;;;12.55;;
32812;SDS011;19162;48.254;11.454;2024-01-30T00:34:54;14.90;;;13.02;;
32812;SDS011;19162;48.254;11.454;2024-01-30T00:37:54;14.20;;;12.75;;
32812;SDS011;19162;48.254;11.454;2024-01-30T00:40:55;15.25;;;12.68;;
32812;SDS011;19162;48.254;11.454;2024-01-30T00:43:55;14.50;;;13.00;;
32812;SDS011;19162;48.254;11.454;2024-01-30T00:46:55;14.83;;;12.77;;
32812;SDS011;19162;48.254;11.454;2024-01-30T00:49:55;14.63;;;13.15;;
32812;SDS011;19162;48.254;11.454;2024-01-30T00:52:55;13.60;;;12.23;;
32812;SDS011;19162;48.254;11.454;2024-01-30T00:55:55;17.23;;;13.70;;
32812;SDS011;19162;48.254;11.454;2024-01-30T00:58:56;16.02;;;14.30;;
32812;SDS011;19162;48.254;11.454;2024-01-30T01:01:56;19.42;;;14.23;;
32812;SDS011;19162;48.254;11.454;2024-01-30T01:04:56;15.67;;;14.07;;
32812;SDS011;19162;48.254;11.454;2024-01-30T01:07:56;16.77;;;14.23;;
32812;SDS011;19162;48.254;11.454;2024-01-30T01:10:56;15.45;;;13.82;;
32812;SDS011;19162;48.254;11.454;2024-01-30T01:13:56;16.10;;;14.50;;
32812;SDS011;19162;48.254;11.454;2024-01-30T01:16:57;16.42;;;14.25;;
32812;SDS011;19162;48.254;11.454;2024-01-30T01:19:57;16.75;;;14.63;;
32812;SDS011;19162;48.254;11.454;2024-01-30T01:22:57;16.30;;;14.63;;
32812;SDS011;19162;48.254;11.454;2024-01-30T01:25:57;18.50;;;16.58;;
32812;SDS011;19162;48.254;11.454;2024-01-30T01:28:59;17.73;;;15.93;;
32812;SDS011;19162;48.254;11.454;2024-01-30T01:31:59;18.98;;;15.40;;
32812;SDS011;19162;48.254;11.454;2024-01-30T01:35:00;17.67;;;15.00;;
32812;SDS011;19162;48.254;11.454;2024-01-30T01:38:00;16.63;;;14.80;;
32812;SDS011;19162;48.254;11.454;2024-01-30T01:41:00;17.58;;;15.80;;
32812;SDS011;19162;48.254;11.454;2024-01-30T01:44:01;18.03;;;16.23;;
32812;SDS011;19162;48.254;11.454;2024-01-30T01:47:01;17.53;;;15.33;;
32812;SDS011;19162;48.254;11.454;2024-01-30T01:50:01;17.07;;;15.37;;
32812;SDS011;19162;48.254;11.454;2024-01-30T01:53:02;17.45;;;15.65;;
32812;SDS011;19162;48.254;11.454;2024-01-30T01:56:02;16.95;;;15.25;;
32812;SDS011;19162;48.254;11.454;2024-01-30T01:59:06;16.40;;;14.68;;
32812;SDS011;19162;48.254;11.454;2024-01-30T02:02:09;18.08;;;16.35;;
32812;SDS011;19162;48.254;11.454;2024-01-30T02:05:11;15.88;;;14.27;;
32812;SDS011;19162;48.254;11.454;2024-01-30T02:08:11;15.50;;;14.10;;
32812;SDS011;19162;48.254;11.454;2024-01-30T02:11:11;15.75;;;14.20;;
32812;SDS011;19162;48.254;11.454;2024-01-30T02:14:12;20.97;;;16.33;;
32812;SDS011;19162;48.254;11.454;2024-01-30T02:17:12;16.75;;;15.05;;
32812;SDS011;19162;48.254;11.454;2024-01-30T02:20:12;18.02;;;16.20;;
32812;SDS011;19162;48.254;11.454;2024-01-30T02:23:14;18.02;;;16.35;;
32812;SDS011;19162;48.254;11.454;2024-01-30T02:26:15;18.52;;;16.73;;
32812;SDS011;19162;48.254;11.454;2024-01-30T02:29:15;17.85;;;16.00;;
32812;SDS011;19162;48.254;11.454;2024-01-30T02:32:15;18.23;;;16.38;;
32812;SDS011;19162;48.254;11.454;2024-01-30T02:35:16;18.63;;;16.90;;
32812;SDS011;19162;48.254;11.454;2024-01-30T02:38:16;18.58;;;16.88;;
32812;SDS011;19162;48.254;11.454;2024-01-30T02:41:16;18.83;;;16.95;;
32812;SDS011;19162;48.254;11.454;2024-01-30T02:44:16;18.40;;;16.53;;
32812;SDS011;19162;48.254;11.454;2024-01-30T02:47:17;18.30;;;16.35;;
32812;SDS011;19162;48.254;11.454;2024-01-30T02:50:17;17.88;;;16.00;;
32812;SDS011;19162;48.254;11.454;2024-01-30T02:53:17;18.53;;;16.67;;
32812;SDS011;19162;48.254;11.454;2024-01-30T02:56:17;18.73;;;16.97;;
32812;SDS011;19162;48.254;11.454;2024-01-30T02:59:18;19.13;;;17.23;;
32812;SDS011;19162;48.254;11.454;2024-01-30T03:02:18;18.57;;;16.70;;
32812;SDS011;19162;48.254;11.454;2024-01-30T03:05:18;19.13;;;17.30;;
32812;SDS011;19162;48.254;11.454;2024-01-30T03:08:18;18.10;;;16.50;;
32812;SDS011;19162;48.254;11.454;2024-01-30T03:11:18;19.60;;;17.70;;
32812;SDS011;19162;48.254;11.454;2024-01-30T03:14:19;18.40;;;16.80;;
32812;SDS011;19162;48.254;11.454;2024-01-30T03:17:19;18.35;;;16.58;;
32812;SDS011;19162;48.254;11.454;2024-01-30T03:20:19;18.40;;;16.67;;
32812;SDS011;19162;48.254;11.454;2024-01-30T03:23:19;17.87;;;15.87;;
32812;SDS011;19162;48.254;11.454;2024-01-30T03:26:19;17.80;;;16.00;;
32812;SDS011;19162;48.254;11.454;2024-01-30T03:29:19;19.13;;;17.13;;
32812;SDS011;19162;48.254;11.454;2024-01-30T03:32:20;18.17;;;16.33;;
32812;SDS011;19162;48.254;11.454;2024-01-30T03:35:20;19.40;;;17.38;;
32812;SDS011;19162;48.254;11.454;2024-01-30T03:38:20;18.15;;;16.55;;
32812;SDS011;19162;48.254;11.454;2024-01-30T03:41:20;18.60;;;16.48;;
32812;SDS011;19162;48.254;11.454;2024-01-30T03:44:20;17.85;;;16.25;;
32812;SDS011;19162;48.254;11.454;2024-01-30T03:47:21;17.98;;;16.27;;
32812;SDS011;19162;48.254;11.454;2024-01-30T03:50:22;17.37;;;15.73;;
32812;SDS011;19162;48.254;11.454;2024-01-30T03:53:22;17.90;;;16.30;;
32812;SDS011;19162;48.254;11.454;2024-01-30T03:56:22;16.63;;;15.07;;
32812;SDS011;19162;48.254;11.454;2024-01-30T03:59:22;17.30;;;15.53;;
32812;SDS011;19162;48.254;11.454;2024-01-30T04:02:24;18.23;;;16.00;;
32812;SDS011;19162;48.254;11.454;2024-01-30T04:05:24;17.20;;;15.52;;
32812;SDS011;19162;48.254;11.454;2024-01-30T04:08:24;17.38;;;15.75;;
32812;SDS011;19162;48.254;11.454;2024-01-30T04:11:25;18.53;;;16.30;;
32812;SDS011;19162;48.254;11.454;2024-01-30T04:14:25;16.40;;;14.70;;
32812;SDS011;19162;48.254;11.454;2024-01-30T04:17:25;17.00;;;15.10;;
32812;SDS011;19162;48.254;11.454;2024-01-30T04:20:25;15.20;;;13.80;;
32812;SDS011;19162;48.254;11.454;2024-01-30T04:23:26;15.95;;;14.27;;
32812;SDS011;19162;48.254;11.454;2024-01-30T04:26:26;16.50;;;14.90;;
32812;SDS011;19162;48.254;11.454;2024-01-30T04:29:26;15.68;;;13.77;;
32812;SDS011;19162;48.254;11.454;2024-01-30T04:32:26;15.47;;;13.97;;
32812;SDS011;19162;48.254;11.454;2024-01-30T04:35:26;15.83;;;14.33;;
32812;SDS011;19162;48.254;11.454;2024-01-30T04:38:26;14.93;;;13.53;;
32812;SDS011;19162;48.254;11.454;2024-01-30T04:41:27;15.88;;;13.85;;
32812;SDS011;19162;48.254;11.454;2024-01-30T04:44:31;16.23;;;14.73;;
32812;SDS011;19162;48.254;11.454;2024-01-30T04:47:31;16.25;;;14.65;;
32812;SDS011;19162;48.254;11.454;2024-01-30T04:50:31;15.43;;;13.77;;
32812;SDS011;19162;48.254;11.454;2024-01-30T04:53:31;14.02;;;12.73;;
32812;SDS011;19162;48.254;11.454;2024-01-30T04:56:32;14.83;;;13.20;;
32812;SDS011;19162;48.254;11.454;2024-01-30T04:59:32;14.10;;;12.70;;
32812;SDS011;19162;48.254;11.454;2024-01-30T05:02:32;13.88;;;12.60;;
32812;SDS011;19162;48.254;11.454;2024-01-30T05:05:32;15.32;;;13.75;;
32812;SDS011;19162;48.254;11.454;2024-01-30T05:08:32;14.65;;;13.20;;
32812;SDS011;19162;48.254;11.454;2024-01-30T05:11:36;14.10;;;12.70;;
32812;SDS011;19162;48.254;11.454;2024-01-30T05:14:37;14.30;;;13.00;;
32812;SDS011;19162;48.254;11.454;2024-01-30T05:17:37;19.27;;;14.02;;
32812;SDS011;19162;48.254;11.454;2024-01-30T05:20:37;14.57;;;13.17;;
32812;SDS011;19162;48.254;11.454;2024-01-30T05:23:37;17.15;;;12.80;;
32812;SDS011;19162;48.254;11.454;2024-01-30T05:26:37;13.10;;;11.90;;
32812;SDS011;19162;48.254;11.454;2024-01-30T05:29:38;14.52;;;13.13;;
32812;SDS011;19162;48.254;11.454;2024-01-30T05:32:38;16.73;;;14.32;;
32812;SDS011;19162;48.254;11.454;2024-01-30T05:35:38;24.23;;;21.83;;
32812;SDS011;19162;48.254;11.454;2024-01-30T05:38:38;16.50;;;14.90;;
32812;SDS011;19162;48.254;11.454;2024-01-30T05:41:39;14.98;;;12.73;;
32812;SDS011;19162;48.254;11.454;2024-01-30T05:44:39;12.55;;;11.35;;
32812;SDS011;19162;48.254;11.454;2024-01-30T05:47:39;12.33;;;10.40;;
32812;SDS011;19162;48.254;11.454;2024-01-30T05:50:39;11.90;;;10.68;;
32812;SDS011;19162;48.254;11.454;2024-01-30T05:53:39;11.40;;;10.30;;
32812;SDS011;19162;48.254;11.454;2024-01-30T05:56:40;12.10;;;10.80;;
32812;SDS011;19162;48.254;11.454;2024-01-30T05:59:40;12.23;;;9.38;;
32812;SDS011;19162;48.254;11.454;2024-01-30T06:02:40;12.73;;;11.53;;
32812;SDS011;19162;48.254;11.454;2024-01-30T06:05:40;11.27;;;10.18;;
32812;SDS011;19162;48.254;11.454;2024-01-30T06:08:40;11.57;;;10.47;;
32812;SDS011;19162;48.254;11.454;2024-01-30T06:11:41;11.93;;;10.75;;
32812;SDS011;19162;48.254;11.454;2024-01-30T06:14:41;11.32;;;10.18;;
32812;SDS011;19162;48.254;11.454;2024-01-30T06:17:42;12.43;;;10.63;;
32812;SDS011;19162;48.254;11.454;2024-01-30T06:20:42;12.45;;;11.25;;
32812;SDS011;19162;48.254;11.454;2024-01-30T06:23:42;12.43;;;11.27;;
32812;SDS011;19162;48.254;11.454;2024-01-30T06:26:42;10.85;;;9.85;;
32812;SDS011;19162;48.254;11.454;2024-01-30T06:29:43;13.47;;;10.97;;
32812;SDS011;19162;48.254;11.454;2024-01-30T06:32:43;11.43;;;10.33;;
32812;SDS011;19162;48.254;11.454;2024-01-30T06:35:43;11.33;;;10.13;;
32812;SDS011;19162;48.254;11.454;2024-01-30T06:38:45;12.33;;;10.37;;
32812;SDS011;19162;48.254;11.454;2024-01-30T06:41:45;11.80;;;10.23;;
32812;SDS011;19162;48.254;11.454;2024-01-30T06:44:46;12.15;;;10.90;;
32812;SDS011;19162;48.254;11.454;2024-01-30T06:47:46;12.60;;;11.50;;
32812;SDS011;19162;48.254;11.454;2024-01-30T06:50:47;11.82;;;10.68;;
32812;SDS011;19162;48.254;11.454;2024-01-30T06:53:48;12.25;;;11.02;;
32812;SDS011;19162;48.254;11.454;2024-01-30T06:56:48;11.93;;;10.70;;
32812;SDS011;19162;48.254;11.454;2024-01-30T06:59:48;11.80;;;10.70;;
32812;SDS011;19162;48.254;11.454;2024-01-30T07:02:48;13.53;;;10.90;;
32812;SDS011;19162;48.254;11.454;2024-01-30T07:05:48;12.30;;;10.95;;
32812;SDS011;19162;48.254;11.454;2024-01-30T07:08:49;12.52;;;11.02;;
32812;SDS011;19162;48.254;11.454;2024-01-30T07:11:49;12.48;;;10.95;;
32812;SDS011;19162;48.254;11.454;2024-01-30T07:14:50;13.20;;;11.90;;
32812;SDS011;19162;48.254;11.454;2024-01-30T07:17:50;13.30;;;12.07;;
32812;SDS011;19162;48.254;11.454;2024-01-30T07:20:50;12.32;;;11.07;;
32812;SDS011;19162;48.254;11.454;2024-01-30T07:23:50;13.97;;;11.80;;
32812;SDS011;19162;48.254;11.454;2024-01-30T07:26:50;12.20;;;11.10;;
32812;SDS011;19162;48.254;11.454;2024-01-30T07:29:51;13.47;;;12.17;;
32812;SDS011;19162;48.254;11.454;2024-01-30T07:32:51;13.90;;;12.50;;
32812;SDS011;19162;48.254;11.454;2024-01-30T07:35:52;14.20;;;12.80;;
32812;SDS011;19162;48.254;11.454;2024-01-30T07:38:52;15.02;;;12.93;;
32812;SDS011;19162;48.254;11.454;2024-01-30T07:41:54;13.00;;;11.38;;
32812;SDS011;19162;48.254;11.454;2024-01-30T07:44:54;13.18;;;11.60;;
32812;SDS011;19162;48.254;11.454;2024-01-30T07:47:54;12.73;;;11.55;;
32812;SDS011;19162;48.254;11.454;2024-01-30T07:50:55;14.10;;;12.53;;
32812;SDS011;19162;48.254;11.454;2024-01-30T07:53:55;17.10;;;12.68;;
32812;SDS011;19162;48.254;11.454;2024-01-30T07:56:55;12.25;;;11.02;;
32812;SDS011;19162;48.254;11.454;2024-01-30T07:59:55;13.52;;;10.52;;
32812;SDS011;19162;48.254;11.454;2024-01-30T08:02:57;11.20;;;10.10;;
32812;SDS011;19162;48.254;11.454;2024-01-30T08:05:57;12.05;;;10.77;;
32812;SDS011;19162;48.254;11.454;2024-01-30T08:08:57;13.27;;;10.95;;
32812;SDS011;19162;48.254;11.454;2024-01-30T08:11:59;15.63;;;11.73;;
32812;SDS011;19162;48.254;11.454;2024-01-30T08:14:59;11.07;;;10.00;;
32812;SDS011;19162;48.254;11.454;2024-01-30T08:17:59;13.07;;;9.97;;
32812;SDS011;19162;48.254;11.454;2024-01-30T08:20:59;12.27;;;10.10;;
32812;SDS011;19162;48.254;11.454;2024-01-30T08:23:59;12.15;;;9.85;;
32812;SDS011;19162;48.254;11.454;2024-01-30T08:27:00;10.20;;;8.35;;
32812;SDS011;19162;48.254;11.454;2024-01-30T08:30:02;9.52;;;8.43;;
32812;SDS011;19162;48.254;11.454;2024-01-30T08:33:02;9.70;;;8.77;;
32812;SDS011;19162;48.254;11.454;2024-01-30T08:36:03;11.43;;;9.53;;
32812;SDS011;19162;48.254;11.454;2024-01-30T08:39:03;11.32;;;10.10;;
32812;SDS011;19162;48.254;11.454;2024-01-30T08:42:05;14.45;;;10.65;;
32812;SDS011;19162;48.254;11.454;2024-01-30T08:45:05;12.25;;;10.38;;
32812;SDS011;19162;48.254;11.454;2024-01-30T08:48:05;11.25;;;9.75;;
32812;SDS011;19162;48.254;11.454;2024-01-30T08:51:06;12.00;;;9.83;;
32812;SDS011;19162;48.254;11.454;2024-01-30T08:54:08;9.65;;;8.35;;
32812;SDS011;19162;48.254;11.454;2024-01-30T08:57:08;9.45;;;8.20;;
32812;SDS011;19162;48.254;11.454;2024-01-30T09:00:08;11.73;;;8.55;;
32812;SDS011;19162;48.254;11.454;2024-01-30T09:03:10;9.95;;;8.07;;
32812;SDS011;19162;48.254;11.454;2024-01-30T09:06:10;8.27;;;7.47;;
32812;SDS011;19162;48.254;11.454;2024-01-30T09:09:10;11.90;;;8.93;;
32812;SDS011;19162;48.254;11.454;2024-01-30T09:12:10;9.37;;;8.17;;
32812;SDS011;19162;48.254;11.454;2024-01-30T09:15:11;11.45;;;7.65;;
32812;SDS011;19162;48.254;11.454;2024-01-30T09:18:11;8.27;;;6.43;;
32812;SDS011;19162;48.254;11.454;2024-01-30T09:21:12;6.87;;;5.97;;
32812;SDS011;19162;48.254;11.454;2024-01-30T09:24:12;6.10;;;5.60;;
32812;SDS011;19162;48.254;11.454;2024-01-30T09:27:12;7.10;;;5.90;;
32812;SDS011;19162;48.254;11.454;2024-01-30T09:30:13;7.83;;;7.13;;
32812;SDS011;19162;48.254;11.454;2024-01-30T09:33:13;7.53;;;6.63;;
32812;SDS011;19162;48.254;11.454;2024-01-30T09:36:13;8.50;;;7.70;;
32812;SDS011;19162;48.254;11.454;2024-01-30T09:39:18;7.80;;;7.10;;
32812;SDS011;19162;48.254;11.454;2024-01-30T09:45:24;6.13;;;5.63;;
32812;SDS011;19162;48.254;11.454;2024-01-30T09:48:24;5.70;;;5.18;;
32812;SDS011;19162;48.254;11.454;2024-01-30T09:51:25;6.43;;;5.75;;
32812;SDS011;19162;48.254;11.454;2024-01-30T09:54:28;8.07;;;7.28;;
32812;SDS011;19162;48.254;11.454;2024-01-30T09:57:28;10.27;;;8.23;;
32812;SDS011;19162;48.254;11.454;2024-01-30T10:00:28;9.60;;;6.63;;
32812;SDS011;19162;48.254;11.454;2024-01-30T10:03:28;8.20;;;6.03;;
32812;SDS011;19162;48.254;11.454;2024-01-30T10:06:28;6.88;;;6.03;;
32812;SDS011;19162;48.254;11.454;2024-01-30T10:09:31;5.73;;;5.13;;
32812;SDS011;19162;48.254;11.454;2024-01-30T10:12:31;5.30;;;4.80;;
32812;SDS011;19162;48.254;11.454;2024-01-30T10:15:32;5.60;;;4.63;;
32812;SDS011;19162;48.254;11.454;2024-01-30T10:18:35;5.20;;;4.38;;
32812;SDS011;19162;48.254;11.454;2024-01-30T10:21:35;4.88;;;4.45;;
32812;SDS011;19162;48.254;11.454;2024-01-30T10:24:35;8.57;;;4.53;;
32812;SDS011;19162;48.254;11.454;2024-01-30T10:27:35;6.97;;;4.20;;
32812;SDS011;19162;48.254;11.454;2024-01-30T10:30:36;9.18;;;5.75;;
32812;SDS011;19162;48.254;11.454;2024-01-30T10:33:36;8.35;;;6.63;;
32812;SDS011;19162;48.254;11.454;2024-01-30T10:36:39;8.00;;;5.37;;
32812;SDS011;19162;48.254;11.454;2024-01-30T10:39:41;8.02;;;5.68;;
32812;SDS011;19162;48.254;11.454;2024-01-30T10:42:42;7.38;;;4.82;;
32812;SDS011;19162;48.254;11.454;2024-01-30T10:45:42;11.10;;;5.65;;
32812;SDS011;19162;48.254;11.454;2024-01-30T10:48:48;8.02;;;5.80;;
32812;SDS011;19162;48.254;11.454;2024-01-30T10:51:50;11.80;;;5.82;;
32812;SDS011;19162;48.254;11.454;2024-01-30T10:54:51;11.43;;;5.28;;
32812;SDS011;19162;48.254;11.454;2024-01-30T10:57:52;5.38;;;4.70;;
32812;SDS011;19162;48.254;11.454;2024-01-30T11:00:53;6.07;;;4.78;;
32812;SDS011;19162;48.254;11.454;2024-01-30T11:03:54;7.05;;;4.80;;
32812;SDS011;19162;48.254;11.454;2024-01-30T11:06:54;5.22;;;4.32;;
32812;SDS011;19162;48.254;11.454;2024-01-30T11:12:57;6.75;;;4.80;;
32812;SDS011;19162;48.254;11.454;2024-01-30T11:16:01;4.60;;;4.20;;
32812;SDS011;19162;48.254;11.454;2024-01-30T11:19:02;7.07;;;4.07;;
32812;SDS011;19162;48.254;11.454;2024-01-30T11:22:02;6.67;;;5.17;;
32812;SDS011;19162;48.254;11.454;2024-01-30T11:25:03;6.10;;;4.03;;
32812;SDS011;19162;48.254;11.454;2024-01-30T11:28:03;5.65;;;4.68;;
32812;SDS011;19162;48.254;11.454;2024-01-30T11:31:04;5.03;;;3.47;;
32812;SDS011;19162;48.254;11.454;2024-01-30T11:34:05;6.53;;;4.07;;
32812;SDS011;19162;48.254;11.454;2024-01-30T11:37:07;5.95;;;3.78;;
32812;SDS011;19162;48.254;11.454;2024-01-30T11:40:09;6.18;;;4.05;;
32812;SDS011;19162;48.254;11.454;2024-01-30T11:43:10;6.25;;;3.83;;
32812;SDS011;19162;48.254;11.454;2024-01-30T11:46:10;5.80;;;3.70;;
32812;SDS011;19162;48.254;11.454;2024-01-30T11:49:10;6.70;;;3.80;;
32812;SDS011;19162;48.254;11.454;2024-01-30T11:52:10;4.97;;;3.83;;
32812;SDS011;19162;48.254;11.454;2024-01-30T11:55:11;6.97;;;3.53;;
32812;SDS011;19162;48.254;11.454;2024-01-30T11:58:12;6.05;;;4.20;;
32812;SDS011;19162;48.254;11.454;2024-01-30T12:01:12;5.20;;;3.67;;
32812;SDS011;19162;48.254;11.454;2024-01-30T12:04:12;7.43;;;4.40;;
32812;SDS011;19162;48.254;11.454;2024-01-30T12:07:12;5.28;;;3.72;;
32812;SDS011;19162;48.254;11.454;2024-01-30T12:13:16;9.68;;;4.00;;
32812;SDS011;19162;48.254;11.454;2024-01-30T12:16:16;5.17;;;3.77;;
32812;SDS011;19162;48.254;11.454;2024-01-30T12:19:25;8.25;;;4.07;;
32812;SDS011;19162;48.254;11.454;2024-01-30T12:22:25;6.07;;;3.90;;
32812;SDS011;19162;48.254;11.454;2024-01-30T12:25:26;4.00;;;3.42;;
32812;SDS011;19162;48.254;11.454;2024-01-30T12:28:26;6.40;;;3.95;;
32812;SDS011;19162;48.254;11.454;2024-01-30T12:31:27;3.83;;;3.47;;
32812;SDS011;19162;48.254;11.454;2024-01-30T12:34:27;6.50;;;3.60;;
32812;SDS011;19162;48.254;11.454;2024-01-30T12:37:28;5.25;;;4.72;;
32812;SDS011;19162;48.254;11.454;2024-01-30T12:40:29;7.30;;;6.13;;
32812;SDS011;19162;48.254;11.454;2024-01-30T12:43:29;5.23;;;3.97;;
32812;SDS011;19162;48.254;11.454;2024-01-30T12:46:30;4.33;;;3.93;;
32812;SDS011;19162;48.254;11.454;2024-01-30T12:49:30;5.30;;;4.03;;
32812;SDS011;19162;48.254;11.454;2024-01-30T12:52:30;5.53;;;3.80;;
32812;SDS011;19162;48.254;11.454;2024-01-30T12:55:30;5.30;;;3.42;;
32812;SDS011;19162;48.254;11.454;2024-01-30T12:58:31;3.40;;;3.07;;
32812;SDS011;19162;48.254;11.454;2024-01-30T13:01:31;3.23;;;2.93;;
32812;SDS011;19162;48.254;11.454;2024-01-30T13:04:31;3.20;;;2.80;;
32812;SDS011;19162;48.254;11.454;2024-01-30T13:07:31;7.20;;;3.87;;
32812;SDS011;19162;48.254;11.454;2024-01-30T13:10:31;3.70;;;3.20;;
32812;SDS011;19162;48.254;11.454;2024-01-30T13:13:32;5.93;;;4.57;;
32812;SDS011;19162;48.254;11.454;2024-01-30T13:16:32;10.60;;;4.15;;
32812;SDS011;19162;48.254;11.454;2024-01-30T13:19:33;5.72;;;3.92;;
32812;SDS011;19162;48.254;11.454;2024-01-30T13:22:33;6.57;;;3.78;;
32812;SDS011;19162;48.254;11.454;2024-01-30T13:25:33;4.37;;;3.73;;
32812;SDS011;19162;48.254;11.454;2024-01-30T13:28:33;5.65;;;4.22;;
32812;SDS011;19162;48.254;11.454;2024-01-30T13:31:33;4.75;;;4.22;;
32812;SDS011;19162;48.254;11.454;2024-01-30T13:34:34;4.20;;;3.80;;
32812;SDS011;19162;48.254;11.454;2024-01-30T13:37:34;3.97;;;3.30;;
32812;SDS011;19162;48.254;11.454;2024-01-30T13:40:35;5.35;;;3.25;;
32812;SDS011;19162;48.254;11.454;2024-01-30T13:43:35;8.50;;;3.83;;
32812;SDS011;19162;48.254;11.454;2024-01-30T13:46:35;4.43;;;3.47;;
32812;SDS011;19162;48.254;11.454;2024-01-30T13:49:36;7.97;;;3.65;;
32812;SDS011;19162;48.254;11.454;2024-01-30T13:52:36;3.58;;;3.05;;
32812;SDS011;19162;48.254;11.454;2024-01-30T13:55:36;3.57;;;3.27;;
32812;SDS011;19162;48.254;11.454;2024-01-30T13:58:36;4.13;;;3.53;;
32812;SDS011;19162;48.254;11.454;2024-01-30T14:01:37;6.43;;;3.30;;
32812;SDS011;19162;48.254;11.454;2024-01-30T14:04:37;3.60;;;3.30;;
32812;SDS011;19162;48.254;11.454;2024-01-30T14:07:37;5.27;;;3.70;;
32812;SDS011;19162;48.254;11.454;2024-01-30T14:10:39;3.47;;;3.17;;
32812;SDS011;19162;48.254;11.454;2024-01-30T14:13:39;5.45;;;3.05;;
32812;SDS011;19162;48.254;11.454;2024-01-30T14:16:39;4.93;;;3.27;;
32812;SDS011;19162;48.254;11.454;2024-01-30T14:19:39;3.88;;;3.50;;
32812;SDS011;19162;48.254;11.454;2024-01-30T14:22:39;4.53;;;3.67;;
32812;SDS011;19162;48.254;11.454;2024-01-30T14:25:40;3.55;;;2.95;;
32812;SDS011;19162;48.254;11.454;2024-01-30T14:28:40;4.75;;;3.28;;
32812;SDS011;19162;48.254;11.454;2024-01-30T14:31:40;6.10;;;3.80;;
32812;SDS011;19162;48.254;11.454;2024-01-30T14:34:40;7.83;;;4.27;;
32812;SDS011;19162;48.254;11.454;2024-01-30T14:37:41;4.68;;;4.28;;
32812;SDS011;19162;48.254;11.454;2024-01-30T14:40:42;4.75;;;4.03;;
32812;SDS011;19162;48.254;11.454;2024-01-30T14:43:42;7.90;;;4.43;;
32812;SDS011;19162;48.254;11.454;2024-01-30T14:46:42;8.85;;;4.75;;
32812;SDS011;19162;48.254;11.454;2024-01-30T14:49:43;4.70;;;4.30;;
32812;SDS011;19162;48.254;11.454;2024-01-30T14:52:43;7.82;;;4.13;;
32812;SDS011;19162;48.254;11.454;2024-01-30T14:55:44;4.43;;;3.85;;
32812;SDS011;19162;48.254;11.454;2024-01-30T14:58:44;6.45;;;4.15;;
32812;SDS011;19162;48.254;11.454;2024-01-30T15:01:44;5.93;;;4.70;;
32812;SDS011;19162;48.254;11.454;2024-01-30T15:04:45;4.22;;;3.75;;
32812;SDS011;19162;48.254;11.454;2024-01-30T15:07:45;4.43;;;3.97;;
32812;SDS011;19162;48.254;11.454;2024-01-30T15:10:45;4.90;;;4.40;;
32812;SDS011;19162;48.254;11.454;2024-01-30T15:13:46;7.30;;;3.83;;
32812;SDS011;19162;48.254;11.454;2024-01-30T15:16:46;5.10;;;4.22;;
32812;SDS011;19162;48.254;11.454;2024-01-30T15:19:46;6.63;;;4.87;;
32812;SDS011;19162;48.254;11.454;2024-01-30T15:22:47;10.95;;;4.63;;
32812;SDS011;19162;48.254;11.454;2024-01-30T15:25:47;9.63;;;4.75;;
32812;SDS011;19162;48.254;11.454;2024-01-30T15:28:48;8.83;;;4.70;;
32812;SDS011;19162;48.254;11.454;2024-01-30T15:31:48;7.80;;;4.55;;
32812;SDS011;19162;48.254;11.454;2024-01-30T15:34:48;6.63;;;5.63;;
32812;SDS011;19162;48.254;11.454;2024-01-30T15:37:48;6.43;;;4.20;;
32812;SDS011;19162;48.254;11.454;2024-01-30T15:40:49;5.37;;;4.50;;
32812;SDS011;19162;48.254;11.454;2024-01-30T15:43:49;6.43;;;4.65;;
32812;SDS011;19162;48.254;11.454;2024-01-30T15:46:49;8.60;;;4.03;;
32812;SDS011;19162;48.254;11.454;2024-01-30T15:49:49;6.10;;;4.53;;
32812;SDS011;19162;48.254;11.454;2024-01-30T15:52:49;9.90;;;4.88;;
32812;SDS011;19162;48.254;11.454;2024-01-30T15:55:50;6.77;;;4.67;;
32812;SDS011;19162;48.254;11.454;2024-01-30T15:58:50;11.18;;;4.70;;
32812;SDS011;19162;48.254;11.454;2024-01-30T16:01:52;7.55;;;3.97;;
32812;SDS011;19162;48.254;11.454;2024-01-30T16:04:52;5.00;;;3.83;;
32812;SDS011;19162;48.254;11.454;2024-01-30T16:07:52;4.75;;;4.22;;
32812;SDS011;19162;48.254;11.454;2024-01-30T16:10:52;6.45;;;4.05;;
32812;SDS011;19162;48.254;11.454;2024-01-30T16:13:53;8.20;;;4.63;;
32812;SDS011;19162;48.254;11.454;2024-01-30T16:16:53;6.07;;;4.65;;
32812;SDS011;19162;48.254;11.454;2024-01-30T16:19:53;8.07;;;4.80;;
32812;SDS011;19162;48.254;11.454;2024-01-30T16:22:53;8.65;;;4.72;;
32812;SDS011;19162;48.254;11.454;2024-01-30T16:25:55;15.25;;;6.47;;
32812;SDS011;19162;48.254;11.454;2024-01-30T16:28:56;13.13;;;5.53;;
32812;SDS011;19162;48.254;11.454;2024-01-30T16:31:56;11.27;;;5.72;;
32812;SDS011;19162;48.254;11.454;2024-01-30T16:34:58;12.05;;;6.13;;
32812;SDS011;19162;48.254;11.454;2024-01-30T16:37:58;13.93;;;6.10;;
32812;SDS011;19162;48.254;11.454;2024-01-30T16:40:58;9.35;;;5.70;;
32812;SDS011;19162;48.254;11.454;2024-01-30T16:43:58;9.30;;;5.43;;
32812;SDS011;19162;48.254;11.454;2024-01-30T16:46:59;14.25;;;5.60;;
32812;SDS011;19162;48.254;11.454;2024-01-30T16:49:59;8.63;;;5.23;;
32812;SDS011;19162;48.254;11.454;2024-01-30T16:52:59;8.70;;;5.17;;
32812;SDS011;19162;48.254;11.454;2024-01-30T16:55:59;12.23;;;6.47;;
32812;SDS011;19162;48.254;11.454;2024-01-30T16:58:59;8.45;;;6.13;;
32812;SDS011;19162;48.254;11.454;2024-01-30T17:01:59;14.52;;;6.10;;
32812;SDS011;19162;48.254;11.454;2024-01-30T17:05:01;8.50;;;5.40;;
32812;SDS011;19162;48.254;11.454;2024-01-30T17:08:01;12.98;;;6.45;;
32812;SDS011;19162;48.254;11.454;2024-01-30T17:11:01;10.25;;;6.13;;
32812;SDS011;19162;48.254;11.454;2024-01-30T17:14:03;7.93;;;5.85;;
32812;SDS011;19162;48.254;11.454;2024-01-30T17:17:03;10.27;;;6.78;;
32812;SDS011;19162;48.254;11.454;2024-01-30T17:20:03;13.95;;;6.10;;
32812;SDS011;19162;48.254;11.454;2024-01-30T17:23:04;8.88;;;6.32;;
32812;SDS011;19162;48.254;11.454;2024-01-30T17:26:09;8.75;;;6.45;;
32812;SDS011;19162;48.254;11.454;2024-01-30T17:29:10;10.00;;;6.70;;
32812;SDS011;19162;48.254;11.454;2024-01-30T17:32:11;9.00;;;6.90;;
32812;SDS011;19162;48.254;11.454;2024-01-30T17:35:11;8.43;;;6.53;;
32812;SDS011;19162;48.254;11.454;2024-01-30T17:38:12;8.93;;;7.30;;
32812;SDS011;19162;48.254;11.454;2024-01-30T17:41:12;14.27;;;7.53;;
32812;SDS011;19162;48.254;11.454;2024-01-30T17:44:12;12.10;;;7.80;;